Time;durP1;ratioP1;P1;durP2;ratioP2;P2;SDS_P1;SDS_P2;PMS_P1;PMS_P2;Temp;Humidity;BMP_temperature;BMP_pressure;BME280_temperature;BME280_humidity;BME280_pressure;Samples;Min_cycle;Max_cycle;Signal;HPM_P1;HPM_P2
2022/01/06 00:00:41;;;;;;;2.20;1.20;;;7.20;65.90;7.10;95944.00;;;;5019162;28;20194;-84
2022/01/06 00:03:08;;;;;;;3.33;0.97;;;7.20;66.00;7.10;95936.00;;;;5018868;28;20198;-84
2022/01/06 00:05:35;;;;;;;2.00;0.97;;;7.20;66.40;7.10;95956.00;;;;5031014;28;20219;-84
2022/01/06 00:08:02;;;;;;;2.57;0.90;;;7.20;66.40;7.10;95957.00;;;;5027457;28;20221;-84
2022/01/06 00:10:31;;;;;;;2.93;1.13;;;7.20;66.60;7.20;95949.00;;;;5022096;28;20263;-84
2022/01/06 00:13:10;;;;;;;2.63;0.97;;;7.30;66.30;7.20;95958.00;;;;5023995;28;20190;-84
2022/01/06 00:15:43;;;;;;;5.50;1.37;;;7.30;66.60;7.20;95948.00;;;;5018301;28;20248;-84
2022/01/06 00:18:29;;;;;;;3.90;1.30;;;7.30;66.00;7.20;95947.00;;;;5017193;28;20264;-84
2022/01/06 00:23:42;;;;;;;4.20;1.20;;;7.30;66.10;7.20;95961.00;;;;5014123;28;20609;-84
2022/01/06 00:26:11;;;;;;;1.33;0.83;;;7.30;66.50;7.20;95959.00;;;;5025628;28;20654;-84
2022/01/06 00:28:39;;;;;;;1.70;1.17;;;7.30;66.50;7.10;95955.00;;;;5017765;28;20316;-84
2022/01/06 00:31:06;;;;;;;4.40;1.30;;;7.30;66.40;7.10;95960.00;;;;5028842;28;20197;-84
2022/01/06 00:33:35;;;;;;;3.47;1.37;;;7.30;66.60;7.10;95962.00;;;;5017898;28;20204;-84
2022/01/06 00:36:02;;;;;;;3.60;1.00;;;7.30;66.40;7.10;95954.00;;;;5013689;28;20218;-85
2022/01/06 00:38:30;;;;;;;2.17;0.83;;;7.30;66.70;7.10;95953.00;;;;5011852;28;20276;-84
2022/01/06 00:40:58;;;;;;;5.47;1.23;;;7.20;66.40;7.00;95958.00;;;;5024944;28;20193;-84
2022/01/06 00:43:26;;;;;;;3.83;1.30;;;7.20;66.40;7.00;95957.00;;;;5026697;28;20196;-84
2022/01/06 00:45:53;;;;;;;4.40;1.40;;;7.20;66.50;7.00;95964.00;;;;5030217;28;20702;-84
2022/01/06 00:48:20;;;;;;;3.83;1.10;;;7.20;67.40;7.00;95974.00;;;;5032092;28;20694;-84
2022/01/06 00:50:48;;;;;;;4.00;1.30;;;7.20;67.30;7.00;95967.00;;;;5031786;28;20197;-84
2022/01/06 00:53:15;;;;;;;3.53;1.20;;;7.20;68.20;7.00;95974.00;;;;5012561;28;20223;-84
2022/01/06 00:55:42;;;;;;;4.03;1.07;;;7.10;67.50;7.00;95975.00;;;;5021557;28;20230;-84
2022/01/06 00:58:09;;;;;;;1.07;0.90;;;7.10;67.30;6.90;95958.00;;;;5018644;28;20202;-84
2022/01/06 01:00:40;;;;;;;1.43;1.20;;;7.10;67.80;6.90;95959.00;;;;5017032;28;20197;-84
2022/01/06 01:03:10;;;;;;;2.90;1.03;;;7.10;67.50;6.90;95966.00;;;;5031806;28;20718;-84
2022/01/06 01:05:38;;;;;;;3.57;1.20;;;7.10;67.90;6.90;95967.00;;;;5025212;28;20210;-84
2022/01/06 01:08:05;;;;;;;4.43;1.57;;;7.10;68.00;6.90;95966.00;;;;5022174;28;20552;-84
2022/01/06 01:10:32;;;;;;;3.87;1.13;;;7.10;68.00;6.90;95976.00;;;;5012158;28;20667;-84
2022/01/06 01:12:59;;;;;;;2.13;1.33;;;7.10;68.00;6.90;95984.00;;;;5021560;28;20208;-84
2022/01/06 01:15:27;;;;;;;2.13;1.27;;;7.10;68.10;6.80;95980.00;;;;5017949;28;20222;-84
2022/01/06 01:18:05;;;;;;;2.97;1.37;;;7.10;68.10;6.80;95980.00;;;;5012825;28;20206;-84
2022/01/06 01:20:33;;;;;;;5.47;1.37;;;7.00;68.10;6.80;95983.00;;;;5013066;28;20193;-84
2022/01/06 01:23:00;;;;;;;3.23;1.23;;;7.00;68.20;6.80;95977.00;;;;5020022;28;20190;-84
2022/01/06 01:25:27;;;;;;;3.13;1.13;;;7.30;68.50;6.80;95975.00;;;;5017774;28;20222;-84
2022/01/06 01:27:55;;;;;;;4.20;1.50;;;7.00;68.40;6.80;95981.00;;;;5012620;28;20221;-84
2022/01/06 01:30:30;;;;;;;2.30;1.30;;;7.00;68.60;6.80;95986.00;;;;5011690;28;20198;-84
2022/01/06 01:33:00;;;;;;;2.10;1.30;;;7.00;68.60;6.80;95972.00;;;;5024221;28;20191;-84
2022/01/06 01:35:31;;;;;;;2.10;0.80;;;6.90;68.80;6.80;95972.00;;;;5029649;28;20220;-84
2022/01/06 01:37:59;;;;;;;3.33;1.00;;;7.00;68.80;6.80;95982.00;;;;5012843;28;20217;-84
2022/01/06 01:40:27;;;;;;;1.97;1.20;;;7.00;69.10;6.80;95980.00;;;;5014602;28;20194;-84
2022/01/06 01:42:54;;;;;;;1.30;0.90;;;7.00;69.20;6.80;95988.00;;;;5021708;28;20206;-84
2022/01/06 01:45:26;;;;;;;2.87;1.20;;;7.10;69.20;6.80;95982.00;;;;5033843;28;20233;-84
2022/01/06 01:47:54;;;;;;;2.77;1.17;;;7.00;69.00;6.80;95990.00;;;;5045244;28;20224;-84
2022/01/06 01:50:22;;;;;;;1.47;0.80;;;6.90;69.00;6.80;95992.00;;;;5037733;28;20205;-84
2022/01/06 01:52:52;;;;;;;2.17;1.20;;;7.00;69.10;6.80;95994.00;;;;5027029;28;20220;-84
2022/01/06 01:55:23;;;;;;;3.20;1.33;;;6.90;69.10;6.80;96000.00;;;;5025612;28;20214;-84
2022/01/06 01:57:52;;;;;;;2.07;1.00;;;7.00;69.10;6.80;96001.00;;;;5015279;28;20202;-84
2022/01/06 02:00:23;;;;;;;2.57;1.40;;;6.90;69.30;6.80;96009.00;;;;5030415;28;20197;-84
2022/01/06 02:02:50;;;;;;;3.07;1.00;;;7.00;69.30;6.80;96011.00;;;;5035325;28;20202;-84
2022/01/06 02:05:24;;;;;;;2.37;1.00;;;7.00;69.40;6.80;95999.00;;;;5020752;28;20218;-84
2022/01/06 02:07:55;;;;;;;2.07;1.40;;;6.90;69.30;6.70;96005.00;;;;5022824;28;20221;-84
2022/01/06 02:10:22;;;;;;;2.00;1.10;;;6.90;69.10;6.70;96006.00;;;;5034636;28;20223;-84
2022/01/06 02:12:53;;;;;;;2.40;1.20;;;6.90;69.50;6.70;96015.00;;;;5034136;28;20203;-84
2022/01/06 02:15:21;;;;;;;4.03;1.63;;;6.90;69.50;6.70;96018.00;;;;5020424;28;20225;-84
2022/01/06 02:17:48;;;;;;;2.03;1.50;;;6.90;69.50;6.70;96018.00;;;;5021688;28;20196;-84
2022/01/06 02:20:18;;;;;;;3.07;1.30;;;6.90;69.60;6.70;96030.00;;;;5024168;28;20663;-84
2022/01/06 02:22:47;;;;;;;1.53;0.97;;;6.90;69.80;6.70;96027.00;;;;5020784;28;20197;-84
2022/01/06 02:25:17;;;;;;;1.80;1.10;;;6.90;69.80;6.70;96023.00;;;;5026401;28;20220;-84
2022/01/06 02:27:48;;;;;;;1.70;1.07;;;6.90;69.90;6.70;96025.00;;;;5014575;28;20202;-84
2022/01/06 02:30:16;;;;;;;4.13;1.20;;;6.90;69.70;6.70;96026.00;;;;5014597;28;20205;-84
2022/01/06 02:32:44;;;;;;;2.27;1.30;;;6.90;70.00;6.70;96025.00;;;;5032870;28;20199;-84
2022/01/06 02:35:15;;;;;;;5.37;1.60;;;6.90;70.00;6.70;96028.00;;;;5022588;28;20272;-84
2022/01/06 02:37:43;;;;;;;2.67;1.43;;;6.90;70.30;6.80;96036.00;;;;5015195;28;20198;-84
2022/01/06 02:40:14;;;;;;;4.87;1.40;;;6.90;70.50;6.80;96032.00;;;;5014944;28;20205;-84
2022/01/06 02:42:43;;;;;;;2.37;1.00;;;6.90;70.50;6.80;96035.00;;;;5029563;28;20205;-84
2022/01/06 02:45:11;;;;;;;3.10;1.20;;;6.90;70.60;6.70;96038.00;;;;5021027;28;20316;-84
2022/01/06 02:47:39;;;;;;;1.87;1.20;;;6.90;70.80;6.70;96036.00;;;;5014643;28;20195;-84
2022/01/06 02:50:08;;;;;;;2.30;1.30;;;6.90;71.10;6.70;96048.00;;;;5014492;28;20236;-84
2022/01/06 02:52:36;;;;;;;3.57;1.27;;;6.90;71.10;6.70;96048.00;;;;5026556;28;20610;-84
2022/01/06 02:55:07;;;;;;;3.73;1.67;;;6.90;71.30;6.70;96045.00;;;;5014109;28;20309;-84
2022/01/06 02:57:34;;;;;;;2.43;1.33;;;6.90;71.50;6.70;96047.00;;;;5021866;28;20201;-84
2022/01/06 03:00:01;;;;;;;2.10;1.37;;;6.80;71.40;6.60;96045.00;;;;5014443;28;20202;-84
2022/01/06 03:02:28;;;;;;;3.30;1.67;;;6.80;71.50;6.60;96052.00;;;;5025651;28;20213;-84
2022/01/06 03:04:55;;;;;;;1.90;1.20;;;6.80;71.80;6.60;96046.00;;;;5029654;28;20201;-84
2022/01/06 03:07:22;;;;;;;3.00;1.50;;;6.80;71.90;6.60;96047.00;;;;5033391;28;20194;-84
2022/01/06 03:09:54;;;;;;;1.93;1.20;;;6.80;72.00;6.60;96046.00;;;;5034048;28;20245;-84
2022/01/06 03:12:28;;;;;;;3.80;1.80;;;6.80;72.30;6.60;96052.00;;;;5023046;28;20193;-84
2022/01/06 03:14:55;;;;;;;2.30;1.37;;;6.80;72.40;6.60;96054.00;;;;5025072;28;20210;-84
2022/01/06 03:17:22;;;;;;;2.20;1.60;;;6.80;72.40;6.60;96063.00;;;;5014263;28;20201;-84
2022/01/06 03:19:49;;;;;;;2.40;1.47;;;6.70;72.10;6.60;96048.00;;;;5015219;28;20216;-84
2022/01/06 03:22:17;;;;;;;2.47;1.60;;;6.80;72.20;6.60;96057.00;;;;5031676;28;20201;-84
2022/01/06 03:24:44;;;;;;;4.13;1.63;;;6.70;72.20;6.60;96062.00;;;;5014194;28;20194;-84
2022/01/06 03:27:11;;;;;;;4.70;1.30;;;6.70;73.10;6.60;96068.00;;;;5029726;28;20195;-84
2022/01/06 03:29:40;;;;;;;3.50;1.50;;;6.70;72.40;6.60;96075.00;;;;5028926;28;20221;-84
2022/01/06 03:32:07;;;;;;;1.87;1.17;;;6.70;72.50;6.60;96066.00;;;;5033284;28;20189;-84
2022/01/06 03:34:35;;;;;;;2.87;1.40;;;6.80;72.60;6.60;96065.00;;;;5027461;28;20209;-84
2022/01/06 03:37:03;;;;;;;3.97;1.70;;;6.70;72.70;6.60;96062.00;;;;5037296;28;20589;-84
2022/01/06 03:39:30;;;;;;;3.23;1.60;;;6.70;72.70;6.60;96074.00;;;;5024789;28;20191;-84
2022/01/06 03:41:57;;;;;;;4.63;1.40;;;6.70;72.90;6.60;96068.00;;;;5015044;28;20205;-84
2022/01/06 03:44:24;;;;;;;2.53;1.20;;;6.70;72.90;6.60;96068.00;;;;5025118;28;20215;-84
2022/01/06 03:46:53;;;;;;;2.53;1.43;;;6.70;73.00;6.60;96073.00;;;;5033145;28;20610;-84
2022/01/06 03:49:21;;;;;;;3.23;1.53;;;6.70;73.10;6.60;96071.00;;;;5027278;28;20218;-84
2022/01/06 03:51:48;;;;;;;2.97;1.30;;;6.70;73.20;6.60;96077.00;;;;5013671;28;20202;-84
2022/01/06 03:54:15;;;;;;;3.63;1.60;;;6.70;73.30;6.60;96077.00;;;;5013036;28;20190;-84
2022/01/06 03:56:42;;;;;;;2.53;1.23;;;6.70;73.50;6.50;96077.00;;;;5061261;23;20714;-85
2022/01/06 03:59:09;;;;;;;3.97;1.50;;;6.70;73.70;6.50;96075.00;;;;5051573;28;20201;-84
2022/01/06 04:01:37;;;;;;;2.30;1.47;;;6.70;73.70;6.50;96077.00;;;;5051538;28;20572;-85
2022/01/06 04:04:05;;;;;;;2.30;1.33;;;7.10;73.90;6.50;96072.00;;;;5044797;28;20656;-85
2022/01/06 04:06:32;;;;;;;5.23;2.00;;;6.70;73.70;6.50;96078.00;;;;5049834;28;20597;-85
2022/01/06 04:08:59;;;;;;;3.27;1.30;;;6.60;73.60;6.60;96074.00;;;;5051480;28;20224;-84
2022/01/06 04:11:26;;;;;;;2.77;1.50;;;6.70;73.70;6.60;96083.00;;;;5040232;28;20588;-86
2022/01/06 04:13:54;;;;;;;2.60;1.00;;;7.30;74.10;6.60;96083.00;;;;5043675;28;20608;-85
2022/01/06 04:16:21;;;;;;;2.37;1.30;;;6.70;73.70;6.60;96085.00;;;;5031449;28;20205;-86
2022/01/06 04:18:48;;;;;;;3.93;1.83;;;6.70;73.60;6.60;96090.00;;;;5043275;28;20192;-85
2022/01/06 04:21:16;;;;;;;4.77;1.60;;;6.70;73.70;6.60;96090.00;;;;5038663;28;20200;-87
2022/01/06 04:23:47;;;;;;;2.87;1.70;;;6.70;73.60;6.60;96095.00;;;;5043498;28;20213;-86
2022/01/06 04:26:14;;;;;;;3.20;1.87;;;6.70;73.70;6.50;96092.00;;;;5049146;28;20542;-86
2022/01/06 04:28:41;;;;;;;2.20;1.37;;;6.70;73.70;6.50;96091.00;;;;5031832;28;20244;-87
2022/01/06 04:31:11;;;;;;;2.30;1.30;;;6.70;73.80;6.50;96094.00;;;;5031893;28;20299;-86
2022/01/06 04:33:39;;;;;;;3.20;1.50;;;6.70;73.80;6.50;96099.00;;;;5036315;28;20598;-85
2022/01/06 04:36:07;;;;;;;1.40;1.30;;;6.70;74.00;6.50;96098.00;;;;5043194;28;20196;-86
2022/01/06 04:38:36;;;;;;;2.53;1.53;;;6.70;73.90;6.60;96098.00;;;;5050653;28;20195;-86
2022/01/06 04:41:04;;;;;;;3.20;1.30;;;6.80;73.90;6.60;96113.00;;;;5046250;28;20650;-84
2022/01/06 04:43:31;;;;;;;4.60;1.30;;;6.70;74.00;6.60;96110.00;;;;5044986;28;20213;-85
2022/01/06 04:45:58;;;;;;;3.03;1.40;;;6.70;74.10;6.60;96121.00;;;;5049868;28;20199;-85
2022/01/06 04:48:26;;;;;;;3.20;1.80;;;6.70;74.10;6.60;96117.00;;;;5043909;28;20193;-86
2022/01/06 04:50:53;;;;;;;2.07;1.30;;;6.70;74.10;6.60;96123.00;;;;5036440;28;20196;-86
2022/01/06 04:53:20;;;;;;;1.47;1.37;;;6.70;74.10;6.60;96115.00;;;;5036355;28;20805;-86
2022/01/06 04:55:49;;;;;;;2.20;1.50;;;6.70;74.10;6.60;96125.00;;;;5052794;28;20731;-85
2022/01/06 04:58:16;;;;;;;3.13;1.20;;;6.80;74.20;6.60;96122.00;;;;5044694;28;20247;-86
2022/01/06 05:00:43;;;;;;;3.53;1.70;;;6.80;74.20;6.70;96127.00;;;;5047692;28;20206;-87
2022/01/06 05:03:10;;;;;;;2.67;1.70;;;6.80;74.20;6.70;96115.00;;;;5041436;28;20220;-86
2022/01/06 05:05:37;;;;;;;2.90;1.57;;;6.80;74.20;6.70;96120.00;;;;5045322;28;20199;-87
2022/01/06 05:08:05;;;;;;;2.50;1.50;;;6.80;74.30;6.70;96128.00;;;;5040673;28;20199;-88
2022/01/06 05:10:32;;;;;;;3.80;1.50;;;6.80;74.20;6.70;96127.00;;;;5035121;28;20216;-86
2022/01/06 05:13:01;;;;;;;2.43;1.43;;;6.80;74.10;6.70;96126.00;;;;5050538;28;20702;-87
2022/01/06 05:15:28;;;;;;;1.40;1.30;;;6.80;74.20;6.70;96133.00;;;;5030080;28;20193;-87
2022/01/06 05:17:55;;;;;;;2.70;1.50;;;6.80;74.10;6.70;96134.00;;;;5043123;28;20201;-86
2022/01/06 05:20:25;;;;;;;2.47;1.50;;;6.80;73.90;6.70;96134.00;;;;5041027;28;20195;-87
2022/01/06 05:22:55;;;;;;;2.30;1.30;;;6.80;74.10;6.70;96118.00;;;;5048487;28;20275;-87
2022/01/06 05:25:26;;;;;;;3.47;1.60;;;6.80;74.20;6.70;96136.00;;;;5040902;28;20199;-87
2022/01/06 05:27:54;;;;;;;2.30;1.50;;;7.30;74.60;6.70;96129.00;;;;5054064;28;20242;-88
2022/01/06 05:30:23;;;;;;;2.63;1.47;;;6.80;74.30;6.80;96146.00;;;;5054417;28;20225;-87
2022/01/06 05:32:51;;;;;;;2.57;1.60;;;6.90;74.30;6.80;96155.00;;;;5048561;28;20316;-87
2022/01/06 05:35:18;;;;;;;2.13;1.30;;;6.90;74.20;6.80;96149.00;;;;5051160;28;20201;-86
2022/01/06 05:37:45;;;;;;;2.20;1.77;;;6.90;74.30;6.80;96146.00;;;;5042355;28;20200;-87
2022/01/06 05:40:14;;;;;;;3.37;1.60;;;6.90;74.20;6.80;96147.00;;;;5044738;28;20197;-87
2022/01/06 05:42:41;;;;;;;2.13;1.57;;;6.90;74.10;6.80;96147.00;;;;5037553;28;20221;-87
2022/01/06 05:45:11;;;;;;;1.83;1.40;;;6.90;74.10;6.70;96156.00;;;;5051450;28;20201;-87
2022/01/06 05:47:39;;;;;;;2.90;1.40;;;6.90;74.00;6.70;96157.00;;;;5034766;28;20225;-87
2022/01/06 05:50:09;;;;;;;2.90;1.60;;;6.90;74.10;6.70;96157.00;;;;5034311;28;20220;-87
2022/01/06 05:52:36;;;;;;;1.60;1.40;;;6.90;74.10;6.70;96154.00;;;;5046746;28;20216;-86
2022/01/06 05:55:04;;;;;;;1.33;1.20;;;6.90;74.10;6.70;96154.00;;;;5051846;28;20484;-88
2022/01/06 05:57:31;;;;;;;2.03;1.60;;;6.90;74.20;6.70;96160.00;;;;5042417;28;20216;-87
2022/01/06 05:59:58;;;;;;;2.27;1.20;;;6.90;74.30;6.70;96158.00;;;;5034381;28;20201;-86
2022/01/06 06:02:25;;;;;;;2.13;1.33;;;8.40;75.30;6.70;96160.00;;;;5040859;28;20300;-86
2022/01/06 06:04:53;;;;;;;1.30;1.20;;;6.90;74.10;6.70;96158.00;;;;5049982;28;20670;-87
2022/01/06 06:07:21;;;;;;;1.60;1.50;;;6.80;74.00;6.70;96169.00;;;;5034754;28;20193;-87
2022/01/06 06:09:48;;;;;;;2.60;1.40;;;6.80;74.20;6.70;96171.00;;;;5040579;28;20591;-87
2022/01/06 06:12:15;;;;;;;1.60;1.50;;;6.80;74.40;6.70;96182.00;;;;5040366;28;21019;-86
2022/01/06 06:14:42;;;;;;;2.83;1.57;;;6.80;74.40;6.70;96176.00;;;;5052267;28;20670;-87
2022/01/06 06:17:10;;;;;;;3.17;1.43;;;6.80;74.40;6.60;96182.00;;;;5053765;28;20203;-87
2022/01/06 06:19:37;;;;;;;1.57;1.30;;;6.80;74.30;6.60;96196.00;;;;5053526;28;20200;-86
2022/01/06 06:22:06;;;;;;;2.10;1.57;;;6.80;74.60;6.60;96171.00;;;;5043323;28;20216;-87
2022/01/06 06:24:33;;;;;;;1.67;1.50;;;6.80;74.70;6.60;96186.00;;;;5033332;28;20201;-86
2022/01/06 06:27:00;;;;;;;2.80;1.33;;;6.80;74.90;6.60;96201.00;;;;5048082;28;20200;-88
2022/01/06 06:29:27;;;;;;;1.70;1.60;;;6.80;74.90;6.60;96193.00;;;;5051726;28;20319;-87
2022/01/06 06:31:54;;;;;;;2.57;1.57;;;6.70;74.90;6.60;96195.00;;;;5052854;28;20603;-87
2022/01/06 06:34:21;;;;;;;1.53;1.43;;;6.70;74.90;6.60;96198.00;;;;5043135;28;20212;-88
2022/01/06 06:36:48;;;;;;;1.47;1.13;;;6.80;75.00;6.60;96212.00;;;;5034472;28;20663;-87
2022/01/06 06:39:17;;;;;;;1.47;1.33;;;6.80;75.00;6.60;96204.00;;;;5045067;28;20288;-86
2022/01/06 06:41:44;;;;;;;1.87;1.67;;;6.80;75.00;6.60;96215.00;;;;5033682;28;20205;-87
2022/01/06 06:44:11;;;;;;;2.03;1.60;;;6.80;75.10;6.60;96216.00;;;;5040455;28;20209;-87
2022/01/06 06:46:38;;;;;;;2.27;1.37;;;6.80;75.10;6.60;96218.00;;;;5033011;28;20201;-87
2022/01/06 06:49:05;;;;;;;2.83;1.30;;;6.80;75.10;6.60;96211.00;;;;5038979;28;20189;-88
2022/01/06 06:51:32;;;;;;;1.63;1.50;;;6.90;75.20;6.60;96220.00;;;;5042445;28;20193;-88
2022/01/06 06:53:59;;;;;;;2.00;1.40;;;6.70;75.00;6.50;96219.00;;;;5037959;28;20205;-86
2022/01/06 06:56:28;;;;;;;1.83;1.40;;;6.70;75.20;6.50;96232.00;;;;5048243;28;20200;-86
2022/01/06 06:58:55;;;;;;;1.40;1.30;;;6.70;75.40;6.50;96238.00;;;;5048554;28;20186;-86
2022/01/06 07:01:22;;;;;;;1.80;1.60;;;6.70;75.50;6.50;96237.00;;;;5035693;28;20205;-86
2022/01/06 07:03:49;;;;;;;1.70;1.60;;;6.60;75.50;6.50;96234.00;;;;5038088;28;20699;-86
2022/01/06 07:06:16;;;;;;;1.40;1.30;;;6.60;75.40;6.50;96237.00;;;;5032684;28;20288;-86
2022/01/06 07:08:43;;;;;;;1.30;1.20;;;6.60;75.50;6.50;96239.00;;;;5033937;28;20205;-87
2022/01/06 07:11:10;;;;;;;1.50;1.40;;;7.00;76.00;6.50;96247.00;;;;5032616;28;20263;-87
2022/01/06 07:13:38;;;;;;;1.50;1.40;;;6.60;75.80;6.50;96243.00;;;;5037741;28;20308;-86
2022/01/06 07:16:06;;;;;;;1.47;1.37;;;6.60;76.50;6.50;96246.00;;;;5038335;28;20201;-87
2022/01/06 07:18:33;;;;;;;2.40;2.20;;;6.60;75.90;6.50;96250.00;;;;5045140;28;20207;-87
2022/01/06 07:21:00;;;;;;;2.40;1.70;;;6.60;76.10;6.50;96243.00;;;;5037832;28;20565;-87
2022/01/06 07:23:27;;;;;;;7.30;5.80;;;6.60;76.20;6.50;96250.00;;;;5039800;28;20288;-86
2022/01/06 07:25:54;;;;;;;3.60;3.23;;;6.70;76.20;6.50;96253.00;;;;5047973;28;20297;-86
2022/01/06 07:28:21;;;;;;;3.50;3.20;;;6.60;76.10;6.50;96259.00;;;;5040622;28;20825;-86
2022/01/06 07:30:50;;;;;;;3.37;2.53;;;6.60;76.10;6.50;96261.00;;;;5049390;28;20635;-87
2022/01/06 07:33:17;;;;;;;1.53;1.43;;;7.00;76.40;6.50;96244.00;;;;5050899;28;20695;-86
2022/01/06 07:35:44;;;;;;;1.90;1.80;;;6.60;76.10;6.50;96250.00;;;;5049831;28;20637;-90
2022/01/06 07:38:11;;;;;;;1.93;1.73;;;7.40;76.70;6.50;96268.00;;;;5047094;28;20196;-88
2022/01/06 07:40:38;;;;;;;3.73;3.43;;;6.80;76.30;6.50;96265.00;;;;5042213;28;20208;-87
2022/01/06 07:43:05;;;;;;;3.30;3.00;;;6.70;76.00;6.50;96267.00;;;;5040519;28;20707;-86
2022/01/06 07:45:33;;;;;;;2.00;1.90;;;7.20;76.00;6.50;96271.00;;;;5048039;28;20247;-86
2022/01/06 07:48:03;;;;;;;2.43;2.23;;;6.60;75.60;6.50;96284.00;;;;5033915;28;20195;-86
2022/01/06 07:50:34;;;;;;;1.50;1.40;;;6.60;75.60;6.50;96278.00;;;;5045041;28;20216;-86
2022/01/06 07:53:02;;;;;;;1.50;1.40;;;6.70;75.70;6.50;96292.00;;;;5040568;28;20604;-86
2022/01/06 07:55:30;;;;;;;1.40;1.30;;;6.60;75.90;6.50;96292.00;;;;5052092;28;20212;-86
2022/01/06 07:58:05;;;;;;;2.03;1.47;;;6.70;76.00;6.50;96293.00;;;;5032418;28;20205;-89
2022/01/06 08:00:43;;;;;;;1.50;1.40;;;6.70;76.00;6.50;96289.00;;;;5046229;28;20283;-86
2022/01/06 08:03:12;;;;;;;1.93;1.73;;;6.70;76.10;6.60;96312.00;;;;5034360;28;20213;-88
2022/01/06 08:05:43;;;;;;;1.50;1.40;;;7.60;76.70;6.70;96303.00;;;;5051102;28;20228;-88
2022/01/06 08:08:11;;;;;;;1.20;1.10;;;7.60;76.80;6.80;96312.00;;;;5052345;28;20579;-87
2022/01/06 08:10:38;;;;;;;1.50;1.40;;;6.80;76.30;6.80;96309.00;;;;5037831;28;20248;-87
2022/01/06 08:16:02;;;;;;;1.60;1.50;;;7.60;76.70;6.90;96329.00;;;;5048837;28;20188;-87
2022/01/06 08:18:33;;;;;;;1.80;1.70;;;7.60;76.80;7.00;96333.00;;;;5052734;28;20192;-86
2022/01/06 08:21:06;;;;;;;3.10;2.80;;;6.90;76.30;7.10;96326.00;;;;5050729;28;20200;-87
2022/01/06 08:23:46;;;;;;;9.57;6.57;;;6.90;76.90;7.10;96340.00;;;;5048880;28;20220;-87
2022/01/06 08:26:25;;;;;;;7.57;5.60;;;7.00;76.30;7.20;96349.00;;;;5048172;28;20650;-86
2022/01/06 08:29:44;;;;;;;3.40;3.10;;;7.00;76.30;7.20;96351.00;;;;5049505;28;20193;-87
2022/01/06 08:32:14;;;;;;;2.10;1.90;;;7.10;76.40;7.20;96338.00;;;;5033709;28;20217;-86
2022/01/06 08:34:43;;;;;;;2.40;1.77;;;7.20;76.40;7.20;96338.00;;;;5043122;28;20229;-89
2022/01/06 08:37:10;;;;;;;1.73;1.50;;;7.20;76.30;7.30;96346.00;;;;5040447;28;20292;-86
2022/01/06 08:39:37;;;;;;;1.67;1.57;;;8.20;77.00;7.40;96351.00;;;;5040471;28;20198;-87
2022/01/06 08:42:05;;;;;;;1.53;1.43;;;8.30;77.00;7.50;96338.00;;;;5031481;28;20312;-86
2022/01/06 08:44:32;;;;;;;1.50;1.40;;;7.30;76.70;7.60;96358.00;;;;5048895;28;20215;-87
2022/01/06 08:47:01;;;;;;;2.20;1.50;;;7.30;76.70;7.60;96364.00;;;;5043525;28;20207;-86
2022/01/06 08:49:29;;;;;;;2.10;1.83;;;7.40;76.70;7.70;96363.00;;;;5049336;28;20204;-87
2022/01/06 08:51:57;;;;;;;2.00;1.80;;;7.40;76.40;7.70;96347.00;;;;5031423;28;20240;-87
2022/01/06 08:54:24;;;;;;;1.80;1.70;;;7.50;76.20;7.80;96362.00;;;;5033970;28;20207;-86
2022/01/06 08:56:51;;;;;;;1.57;1.47;;;7.50;76.20;7.80;96359.00;;;;5030742;28;20219;-86
2022/01/06 08:59:19;;;;;;;2.10;1.70;;;8.20;76.80;7.90;96362.00;;;;5039686;28;20201;-87
2022/01/06 09:01:46;;;;;;;2.10;1.70;;;7.70;76.50;8.00;96369.00;;;;5047208;28;20228;-87
2022/01/06 09:04:13;;;;;;;2.50;1.60;;;7.70;76.50;8.10;96358.00;;;;5041345;28;20240;-86
2022/01/06 09:06:40;;;;;;;1.53;1.30;;;7.80;76.70;8.20;96374.00;;;;5043707;28;20578;-86
2022/01/06 09:09:11;;;;;;;1.60;1.30;;;7.90;76.70;8.30;96363.00;;;;5038948;28;20280;-86
2022/01/06 09:11:38;;;;;;;1.70;1.60;;;8.90;77.00;8.40;96375.00;;;;5037521;28;20315;-86
2022/01/06 09:14:05;;;;;;;1.70;1.60;;;8.00;76.30;8.50;96389.00;;;;5042412;28;20288;-87
2022/01/06 09:16:33;;;;;;;2.10;1.50;;;8.10;76.10;8.50;96388.00;;;;5037952;28;20201;-86
2022/01/06 09:19:00;;;;;;;1.73;1.50;;;8.20;76.00;8.50;96375.00;;;;5031560;28;20193;-86
2022/01/06 09:21:27;;;;;;;1.90;1.40;;;9.00;76.30;8.60;96374.00;;;;5027043;28;20255;-85
2022/01/06 09:23:57;;;;;;;2.17;1.40;;;8.30;75.50;8.60;96385.00;;;;5049615;28;20193;-87
2022/01/06 09:26:25;;;;;;;3.67;2.37;;;8.30;75.50;8.70;96389.00;;;;5037935;28;20229;-87
2022/01/06 09:28:52;;;;;;;2.33;2.10;;;8.40;75.50;8.80;96398.00;;;;5040684;28;20202;-86
2022/01/06 09:31:21;;;;;;;2.70;1.80;;;8.50;75.50;8.90;96380.00;;;;5039936;28;20303;-89
2022/01/06 09:33:48;;;;;;;2.07;1.73;;;8.60;75.70;8.90;96375.00;;;;5036932;28;20224;-85
2022/01/06 09:36:16;;;;;;;1.80;1.70;;;8.60;75.40;9.00;96393.00;;;;5048729;28;20207;-85
2022/01/06 09:38:45;;;;;;;1.80;1.70;;;8.70;75.20;9.00;96395.00;;;;5048036;28;20339;-85
2022/01/06 09:41:14;;;;;;;2.47;2.07;;;8.70;74.90;9.00;96391.00;;;;5058575;28;20217;-86
2022/01/06 09:43:43;;;;;;;1.93;1.73;;;8.70;74.70;8.90;96395.00;;;;5042588;23;20235;-85
2022/01/06 09:46:11;;;;;;;1.80;1.70;;;8.70;73.80;8.80;96394.00;;;;5007955;28;20195;-84
2022/01/06 09:48:40;;;;;;;1.90;1.80;;;8.70;73.90;8.80;96397.00;;;;4995703;28;20199;-84
2022/01/06 09:51:10;;;;;;;2.07;1.83;;;8.70;73.40;8.70;96403.00;;;;5003202;28;20709;-84
2022/01/06 09:53:38;;;;;;;1.70;1.60;;;8.70;73.20;8.60;96401.00;;;;5022182;28;20226;-84
2022/01/06 09:56:05;;;;;;;1.67;1.53;;;8.60;73.00;8.50;96407.00;;;;5016539;28;20194;-84
2022/01/06 09:58:33;;;;;;;2.37;1.70;;;8.60;73.30;8.50;96413.00;;;;5012031;28;20204;-84
2022/01/06 10:01:01;;;;;;;1.60;1.50;;;8.60;73.50;8.50;96419.00;;;;5010338;28;20664;-84
2022/01/06 10:03:36;;;;;;;1.93;1.30;;;8.60;73.50;8.50;96412.00;;;;4997293;28;20225;-83
2022/01/06 10:06:12;;;;;;;1.53;1.43;;;8.60;72.60;8.40;96416.00;;;;5014378;28;20202;-83
2022/01/06 10:08:39;;;;;;;1.70;1.60;;;8.50;72.90;8.40;96420.00;;;;5015901;28;20185;-84
2022/01/06 10:11:18;;;;;;;2.07;1.60;;;8.50;73.10;8.40;96418.00;;;;5015619;28;20236;-84
2022/01/06 10:13:53;;;;;;;2.17;1.60;;;8.50;73.20;8.40;96420.00;;;;5021815;28;20569;-84
2022/01/06 10:16:23;;;;;;;4.60;2.20;;;8.50;73.10;8.40;96428.00;;;;5016324;28;20719;-84
2022/01/06 10:18:59;;;;;;;2.50;1.73;;;8.50;73.30;8.40;96425.00;;;;5014604;28;20194;-84
2022/01/06 10:21:32;;;;;;;1.47;1.37;;;8.50;73.40;8.40;96423.00;;;;5014715;28;20876;-84
2022/01/06 10:24:11;;;;;;;2.30;1.60;;;8.50;73.30;8.40;96427.00;;;;5019155;28;20698;-83
2022/01/06 10:26:52;;;;;;;1.50;1.40;;;8.50;73.10;8.40;96424.00;;;;5029253;28;20202;-83
2022/01/06 10:29:19;;;;;;;1.83;1.73;;;8.40;72.80;8.30;96419.00;;;;5026555;28;20213;-84
2022/01/06 10:31:48;;;;;;;1.77;1.60;;;8.40;72.90;8.30;96419.00;;;;5034587;28;20225;-84
2022/01/06 10:34:16;;;;;;;1.70;1.60;;;8.40;73.20;8.40;96437.00;;;;5023474;28;20228;-84
2022/01/06 10:36:48;;;;;;;1.80;1.70;;;8.50;73.90;8.50;96428.00;;;;5014663;28;20213;-83
2022/01/06 10:39:15;;;;;;;2.20;1.80;;;8.60;74.10;8.50;96431.00;;;;5014607;28;20186;-83
2022/01/06 10:41:42;;;;;;;2.30;1.80;;;8.50;74.10;8.60;96428.00;;;;5014242;28;20190;-84
2022/01/06 10:44:12;;;;;;;2.00;1.80;;;8.70;74.10;8.70;96443.00;;;;5014431;28;20316;-83
2022/01/06 10:46:59;;;;;;;2.73;1.70;;;8.80;73.50;8.80;96438.00;;;;5014852;28;20194;-83
2022/01/06 10:49:26;;;;;;;1.70;1.40;;;8.90;73.90;8.90;96440.00;;;;5014344;28;20182;-84
2022/01/06 10:51:53;;;;;;;1.73;1.50;;;8.90;73.90;9.00;96443.00;;;;5014364;28;20228;-83
2022/01/06 10:54:24;;;;;;;1.57;1.47;;;9.00;74.10;9.10;96440.00;;;;5014480;28;20722;-83
2022/01/06 10:57:00;;;;;;;1.90;1.60;;;9.00;73.50;9.20;96438.00;;;;5014287;28;20672;-83
2022/01/06 10:59:29;;;;;;;1.97;1.60;;;9.20;73.10;9.20;96438.00;;;;5010905;28;20201;-83
2022/01/06 11:01:58;;;;;;;1.80;1.40;;;9.20;73.10;9.30;96444.00;;;;5033234;28;20215;-83
2022/01/06 11:04:26;;;;;;;2.30;1.80;;;9.20;73.00;9.30;96441.00;;;;5027870;28;20213;-83
2022/01/06 11:06:54;;;;;;;3.00;1.90;;;9.30;72.70;9.30;96447.00;;;;5027970;28;20209;-83
2022/01/06 11:09:21;;;;;;;2.07;1.70;;;9.20;72.30;9.30;96448.00;;;;5021914;28;20208;-84
2022/01/06 11:14:34;;;;;;;1.40;1.30;;;9.30;72.30;9.30;96457.00;;;;5015768;28;20241;-84
2022/01/06 11:17:03;;;;;;;2.23;1.50;;;9.30;72.20;9.30;96448.00;;;;5026795;28;20203;-83
2022/01/06 11:19:30;;;;;;;2.63;1.27;;;9.30;72.20;9.30;96453.00;;;;5028214;28;20204;-84
2022/01/06 11:22:09;;;;;;;2.70;1.53;;;9.30;71.60;9.30;96451.00;;;;5030337;28;20212;-84
2022/01/06 11:24:39;;;;;;;2.03;1.83;;;9.20;70.80;9.30;96449.00;;;;5035827;28;20255;-83